sensor_id;sensor_type;location;lat;lon;timestamp;P1;durP1;ratioP1;P2;durP2;ratioP2
56481;SDS011;42384;45.186;19.958;2024-01-07T00:01:15;11.52;;;6.80;;
56481;SDS011;42384;45.186;19.958;2024-01-07T00:03:41;12.00;;;6.63;;
56481;SDS011;42384;45.186;19.958;2024-01-07T00:06:08;12.10;;;6.60;;
56481;SDS011;42384;45.186;19.958;2024-01-07T00:08:34;12.07;;;6.30;;
56481;SDS011;42384;45.186;19.958;2024-01-07T00:11:00;10.00;;;6.72;;
56481;SDS011;42384;45.186;19.958;2024-01-07T00:13:27;15.32;;;6.35;;
56481;SDS011;42384;45.186;19.958;2024-01-07T00:15:53;14.85;;;7.35;;
56481;SDS011;42384;45.186;19.958;2024-01-07T00:18:20;11.35;;;6.13;;
56481;SDS011;42384;45.186;19.958;2024-01-07T00:20:47;11.00;;;5.28;;
56481;SDS011;42384;45.186;19.958;2024-01-07T00:23:13;12.48;;;6.43;;
56481;SDS011;42384;45.186;19.958;2024-01-07T00:25:39;12.73;;;5.70;;
56481;SDS011;42384;45.186;19.958;2024-01-07T00:28:05;11.38;;;6.10;;
56481;SDS011;42384;45.186;19.958;2024-01-07T00:30:32;12.60;;;7.50;;
56481;SDS011;42384;45.186;19.958;2024-01-07T00:32:58;12.40;;;6.45;;
56481;SDS011;42384;45.186;19.958;2024-01-07T00:35:24;10.97;;;6.07;;
56481;SDS011;42384;45.186;19.958;2024-01-07T00:37:50;9.63;;;6.28;;
56481;SDS011;42384;45.186;19.958;2024-01-07T00:40:16;14.25;;;6.97;;
56481;SDS011;42384;45.186;19.958;2024-01-07T00:42:42;12.03;;;6.43;;
56481;SDS011;42384;45.186;19.958;2024-01-07T00:45:09;13.13;;;6.70;;
56481;SDS011;42384;45.186;19.958;2024-01-07T00:47:35;8.90;;;5.63;;
56481;SDS011;42384;45.186;19.958;2024-01-07T00:50:01;13.20;;;6.73;;
56481;SDS011;42384;45.186;19.958;2024-01-07T00:52:27;13.05;;;6.10;;
56481;SDS011;42384;45.186;19.958;2024-01-07T00:54:53;15.37;;;6.67;;
56481;SDS011;42384;45.186;19.958;2024-01-07T00:57:19;12.65;;;5.57;;
56481;SDS011;42384;45.186;19.958;2024-01-07T00:59:45;12.57;;;6.70;;
56481;SDS011;42384;45.186;19.958;2024-01-07T01:02:12;14.77;;;6.07;;
56481;SDS011;42384;45.186;19.958;2024-01-07T01:04:38;10.93;;;5.80;;
56481;SDS011;42384;45.186;19.958;2024-01-07T01:07:05;12.43;;;5.90;;
56481;SDS011;42384;45.186;19.958;2024-01-07T01:09:32;12.27;;;6.53;;
56481;SDS011;42384;45.186;19.958;2024-01-07T01:11:58;10.67;;;5.40;;
56481;SDS011;42384;45.186;19.958;2024-01-07T01:14:25;10.75;;;5.80;;
56481;SDS011;42384;45.186;19.958;2024-01-07T01:16:51;13.70;;;6.60;;
56481;SDS011;42384;45.186;19.958;2024-01-07T01:19:17;11.37;;;5.33;;
56481;SDS011;42384;45.186;19.958;2024-01-07T01:21:44;9.63;;;5.35;;
56481;SDS011;42384;45.186;19.958;2024-01-07T01:24:10;10.77;;;6.13;;
56481;SDS011;42384;45.186;19.958;2024-01-07T01:26:37;11.27;;;5.68;;
56481;SDS011;42384;45.186;19.958;2024-01-07T01:29:04;16.52;;;6.97;;
56481;SDS011;42384;45.186;19.958;2024-01-07T01:31:31;10.20;;;5.68;;
56481;SDS011;42384;45.186;19.958;2024-01-07T01:33:57;12.68;;;6.47;;
56481;SDS011;42384;45.186;19.958;2024-01-07T01:36:23;10.97;;;6.27;;
56481;SDS011;42384;45.186;19.958;2024-01-07T01:38:50;12.82;;;6.45;;
56481;SDS011;42384;45.186;19.958;2024-01-07T01:41:16;12.82;;;6.90;;
56481;SDS011;42384;45.186;19.958;2024-01-07T01:43:43;18.67;;;6.73;;
56481;SDS011;42384;45.186;19.958;2024-01-07T01:46:09;9.93;;;6.13;;
56481;SDS011;42384;45.186;19.958;2024-01-07T01:48:35;9.63;;;5.23;;
56481;SDS011;42384;45.186;19.958;2024-01-07T01:51:02;9.80;;;5.00;;
56481;SDS011;42384;45.186;19.958;2024-01-07T01:53:28;8.77;;;5.28;;
56481;SDS011;42384;45.186;19.958;2024-01-07T01:55:55;10.80;;;6.33;;
56481;SDS011;42384;45.186;19.958;2024-01-07T01:58:23;11.18;;;4.75;;
56481;SDS011;42384;45.186;19.958;2024-01-07T02:00:49;8.45;;;4.90;;
56481;SDS011;42384;45.186;19.958;2024-01-07T02:03:16;12.57;;;5.03;;
56481;SDS011;42384;45.186;19.958;2024-01-07T02:05:42;8.90;;;4.88;;
56481;SDS011;42384;45.186;19.958;2024-01-07T02:08:09;13.40;;;5.63;;
56481;SDS011;42384;45.186;19.958;2024-01-07T02:13:05;10.77;;;5.40;;
56481;SDS011;42384;45.186;19.958;2024-01-07T02:15:31;9.90;;;5.68;;
56481;SDS011;42384;45.186;19.958;2024-01-07T02:17:59;10.75;;;6.13;;
56481;SDS011;42384;45.186;19.958;2024-01-07T02:20:25;10.98;;;5.88;;
56481;SDS011;42384;45.186;19.958;2024-01-07T02:22:51;11.30;;;6.50;;
56481;SDS011;42384;45.186;19.958;2024-01-07T02:25:18;10.95;;;5.22;;
56481;SDS011;42384;45.186;19.958;2024-01-07T02:27:45;11.90;;;6.43;;
56481;SDS011;42384;45.186;19.958;2024-01-07T02:30:11;11.63;;;5.10;;
56481;SDS011;42384;45.186;19.958;2024-01-07T02:32:37;8.57;;;5.10;;
56481;SDS011;42384;45.186;19.958;2024-01-07T02:35:04;10.00;;;4.68;;
56481;SDS011;42384;45.186;19.958;2024-01-07T02:37:30;12.15;;;4.90;;
56481;SDS011;42384;45.186;19.958;2024-01-07T02:39:57;11.18;;;4.93;;
56481;SDS011;42384;45.186;19.958;2024-01-07T02:42:23;12.50;;;5.57;;
56481;SDS011;42384;45.186;19.958;2024-01-07T02:44:49;7.93;;;4.80;;
56481;SDS011;42384;45.186;19.958;2024-01-07T02:47:15;12.40;;;5.00;;
56481;SDS011;42384;45.186;19.958;2024-01-07T02:49:42;10.27;;;4.90;;
56481;SDS011;42384;45.186;19.958;2024-01-07T02:52:08;6.90;;;4.30;;
56481;SDS011;42384;45.186;19.958;2024-01-07T02:54:34;10.40;;;4.73;;
56481;SDS011;42384;45.186;19.958;2024-01-07T02:57:00;9.20;;;4.53;;
56481;SDS011;42384;45.186;19.958;2024-01-07T02:59:27;9.38;;;4.43;;
56481;SDS011;42384;45.186;19.958;2024-01-07T03:01:53;8.17;;;4.50;;
56481;SDS011;42384;45.186;19.958;2024-01-07T03:04:19;15.00;;;6.07;;
56481;SDS011;42384;45.186;19.958;2024-01-07T03:06:45;10.90;;;5.78;;
56481;SDS011;42384;45.186;19.958;2024-01-07T03:09:11;10.45;;;4.50;;
56481;SDS011;42384;45.186;19.958;2024-01-07T03:11:40;11.60;;;5.17;;
56481;SDS011;42384;45.186;19.958;2024-01-07T03:14:07;10.77;;;5.60;;
56481;SDS011;42384;45.186;19.958;2024-01-07T03:16:33;11.13;;;5.28;;
56481;SDS011;42384;45.186;19.958;2024-01-07T03:19:00;13.00;;;7.33;;
56481;SDS011;42384;45.186;19.958;2024-01-07T03:21:27;13.27;;;5.80;;
56481;SDS011;42384;45.186;19.958;2024-01-07T03:23:53;8.98;;;4.82;;
56481;SDS011;42384;45.186;19.958;2024-01-07T03:26:20;9.73;;;4.15;;
56481;SDS011;42384;45.186;19.958;2024-01-07T03:28:46;10.05;;;5.40;;
56481;SDS011;42384;45.186;19.958;2024-01-07T03:31:13;10.13;;;5.07;;
56481;SDS011;42384;45.186;19.958;2024-01-07T03:36:09;9.20;;;4.60;;
56481;SDS011;42384;45.186;19.958;2024-01-07T03:38:36;10.15;;;4.35;;
56481;SDS011;42384;45.186;19.958;2024-01-07T03:41:02;7.75;;;4.13;;
56481;SDS011;42384;45.186;19.958;2024-01-07T03:43:28;10.35;;;4.28;;
56481;SDS011;42384;45.186;19.958;2024-01-07T03:45:55;12.07;;;4.77;;
56481;SDS011;42384;45.186;19.958;2024-01-07T03:48:21;9.63;;;4.30;;
56481;SDS011;42384;45.186;19.958;2024-01-07T03:50:47;9.43;;;4.90;;
56481;SDS011;42384;45.186;19.958;2024-01-07T03:53:14;10.07;;;4.57;;
56481;SDS011;42384;45.186;19.958;2024-01-07T03:55:40;7.13;;;4.35;;
56481;SDS011;42384;45.186;19.958;2024-01-07T03:58:06;12.60;;;5.18;;
56481;SDS011;42384;45.186;19.958;2024-01-07T04:00:33;9.23;;;3.93;;
56481;SDS011;42384;45.186;19.958;2024-01-07T04:03:00;14.32;;;4.25;;
56481;SDS011;42384;45.186;19.958;2024-01-07T04:05:26;9.27;;;4.65;;
56481;SDS011;42384;45.186;19.958;2024-01-07T04:07:54;10.32;;;4.43;;
56481;SDS011;42384;45.186;19.958;2024-01-07T04:10:20;8.57;;;4.70;;
56481;SDS011;42384;45.186;19.958;2024-01-07T04:12:47;8.90;;;4.78;;
56481;SDS011;42384;45.186;19.958;2024-01-07T04:15:14;12.37;;;4.60;;
56481;SDS011;42384;45.186;19.958;2024-01-07T04:17:40;9.23;;;4.87;;
56481;SDS011;42384;45.186;19.958;2024-01-07T04:20:07;8.27;;;4.38;;
56481;SDS011;42384;45.186;19.958;2024-01-07T04:22:34;15.50;;;4.95;;
56481;SDS011;42384;45.186;19.958;2024-01-07T04:25:00;7.30;;;4.13;;
56481;SDS011;42384;45.186;19.958;2024-01-07T04:27:26;9.73;;;5.47;;
56481;SDS011;42384;45.186;19.958;2024-01-07T04:29:52;10.35;;;4.53;;
56481;SDS011;42384;45.186;19.958;2024-01-07T04:32:18;9.50;;;3.78;;
56481;SDS011;42384;45.186;19.958;2024-01-07T04:34:45;10.20;;;3.72;;
56481;SDS011;42384;45.186;19.958;2024-01-07T04:37:11;12.80;;;4.15;;
56481;SDS011;42384;45.186;19.958;2024-01-07T04:39:38;11.40;;;4.35;;
56481;SDS011;42384;45.186;19.958;2024-01-07T04:42:04;7.20;;;4.23;;
56481;SDS011;42384;45.186;19.958;2024-01-07T04:44:30;7.07;;;3.63;;
56481;SDS011;42384;45.186;19.958;2024-01-07T04:46:57;11.93;;;6.07;;
56481;SDS011;42384;45.186;19.958;2024-01-07T04:49:23;9.77;;;4.03;;
56481;SDS011;42384;45.186;19.958;2024-01-07T04:51:49;11.03;;;4.50;;
56481;SDS011;42384;45.186;19.958;2024-01-07T04:54:15;9.27;;;4.97;;
56481;SDS011;42384;45.186;19.958;2024-01-07T04:56:42;8.23;;;3.75;;
56481;SDS011;42384;45.186;19.958;2024-01-07T04:59:08;10.23;;;3.60;;
56481;SDS011;42384;45.186;19.958;2024-01-07T05:01:35;11.20;;;3.80;;
56481;SDS011;42384;45.186;19.958;2024-01-07T05:04:01;9.97;;;4.23;;
56481;SDS011;42384;45.186;19.958;2024-01-07T05:06:28;11.40;;;4.07;;
56481;SDS011;42384;45.186;19.958;2024-01-07T05:08:54;10.40;;;3.60;;
56481;SDS011;42384;45.186;19.958;2024-01-07T05:11:21;8.13;;;3.60;;
56481;SDS011;42384;45.186;19.958;2024-01-07T05:13:47;9.00;;;3.43;;
56481;SDS011;42384;45.186;19.958;2024-01-07T05:16:19;6.45;;;3.10;;
56481;SDS011;42384;45.186;19.958;2024-01-07T05:18:46;7.25;;;3.55;;
56481;SDS011;42384;45.186;19.958;2024-01-07T05:21:18;7.35;;;3.03;;
56481;SDS011;42384;45.186;19.958;2024-01-07T05:23:44;7.47;;;3.33;;
56481;SDS011;42384;45.186;19.958;2024-01-07T05:26:10;7.25;;;3.22;;
56481;SDS011;42384;45.186;19.958;2024-01-07T05:28:37;9.23;;;4.20;;
56481;SDS011;42384;45.186;19.958;2024-01-07T05:31:03;6.63;;;3.33;;
56481;SDS011;42384;45.186;19.958;2024-01-07T05:33:29;7.45;;;3.10;;
56481;SDS011;42384;45.186;19.958;2024-01-07T05:35:55;6.60;;;2.85;;
56481;SDS011;42384;45.186;19.958;2024-01-07T05:40:49;9.43;;;3.30;;
56481;SDS011;42384;45.186;19.958;2024-01-07T05:43:15;7.75;;;3.60;;
56481;SDS011;42384;45.186;19.958;2024-01-07T05:45:41;7.18;;;3.10;;
56481;SDS011;42384;45.186;19.958;2024-01-07T05:48:08;9.73;;;3.33;;
56481;SDS011;42384;45.186;19.958;2024-01-07T05:50:34;8.77;;;3.30;;
56481;SDS011;42384;45.186;19.958;2024-01-07T05:53:00;9.50;;;3.83;;
56481;SDS011;42384;45.186;19.958;2024-01-07T05:55:26;10.87;;;4.33;;
56481;SDS011;42384;45.186;19.958;2024-01-07T05:57:53;10.33;;;4.03;;
56481;SDS011;42384;45.186;19.958;2024-01-07T06:00:19;9.20;;;3.90;;
56481;SDS011;42384;45.186;19.958;2024-01-07T06:02:45;14.23;;;4.30;;
56481;SDS011;42384;45.186;19.958;2024-01-07T06:05:11;12.57;;;5.07;;
56481;SDS011;42384;45.186;19.958;2024-01-07T06:07:38;11.65;;;5.30;;
56481;SDS011;42384;45.186;19.958;2024-01-07T06:10:04;7.53;;;3.53;;
56481;SDS011;42384;45.186;19.958;2024-01-07T06:14:57;11.48;;;4.45;;
56481;SDS011;42384;45.186;19.958;2024-01-07T06:17:24;8.50;;;4.60;;
56481;SDS011;42384;45.186;19.958;2024-01-07T06:19:50;13.20;;;7.78;;
56481;SDS011;42384;45.186;19.958;2024-01-07T06:22:16;11.73;;;6.00;;
56481;SDS011;42384;45.186;19.958;2024-01-07T06:24:43;17.20;;;7.20;;
56481;SDS011;42384;45.186;19.958;2024-01-07T06:27:09;11.30;;;5.47;;
56481;SDS011;42384;45.186;19.958;2024-01-07T06:29:35;10.73;;;5.05;;
56481;SDS011;42384;45.186;19.958;2024-01-07T06:32:02;9.50;;;4.60;;
56481;SDS011;42384;45.186;19.958;2024-01-07T06:34:28;9.52;;;4.93;;
56481;SDS011;42384;45.186;19.958;2024-01-07T06:36:55;7.45;;;4.10;;
56481;SDS011;42384;45.186;19.958;2024-01-07T06:39:21;8.10;;;4.85;;
56481;SDS011;42384;45.186;19.958;2024-01-07T06:41:47;7.33;;;4.23;;
56481;SDS011;42384;45.186;19.958;2024-01-07T06:44:14;10.60;;;5.13;;
56481;SDS011;42384;45.186;19.958;2024-01-07T06:46:40;9.20;;;4.70;;
56481;SDS011;42384;45.186;19.958;2024-01-07T06:49:06;10.73;;;5.00;;
56481;SDS011;42384;45.186;19.958;2024-01-07T06:51:33;11.52;;;5.57;;
56481;SDS011;42384;45.186;19.958;2024-01-07T06:54:00;9.77;;;4.67;;
56481;SDS011;42384;45.186;19.958;2024-01-07T06:56:26;12.87;;;6.10;;
56481;SDS011;42384;45.186;19.958;2024-01-07T06:58:52;29.38;;;13.75;;
56481;SDS011;42384;45.186;19.958;2024-01-07T07:01:22;33.88;;;16.10;;
56481;SDS011;42384;45.186;19.958;2024-01-07T07:03:49;24.05;;;13.10;;
56481;SDS011;42384;45.186;19.958;2024-01-07T07:06:15;20.25;;;11.10;;
56481;SDS011;42384;45.186;19.958;2024-01-07T07:08:42;14.68;;;9.98;;
56481;SDS011;42384;45.186;19.958;2024-01-07T07:11:08;14.75;;;7.72;;
56481;SDS011;42384;45.186;19.958;2024-01-07T07:13:35;13.63;;;6.53;;
56481;SDS011;42384;45.186;19.958;2024-01-07T07:16:01;13.50;;;7.32;;
56481;SDS011;42384;45.186;19.958;2024-01-07T07:18:27;11.27;;;7.40;;
56481;SDS011;42384;45.186;19.958;2024-01-07T07:20:53;15.40;;;9.33;;
56481;SDS011;42384;45.186;19.958;2024-01-07T07:23:20;14.70;;;9.50;;
56481;SDS011;42384;45.186;19.958;2024-01-07T07:25:46;14.15;;;7.53;;
56481;SDS011;42384;45.186;19.958;2024-01-07T07:28:13;12.63;;;7.17;;
56481;SDS011;42384;45.186;19.958;2024-01-07T07:30:39;9.90;;;6.32;;
56481;SDS011;42384;45.186;19.958;2024-01-07T07:33:06;10.73;;;5.93;;
56481;SDS011;42384;45.186;19.958;2024-01-07T07:35:32;12.18;;;6.38;;
56481;SDS011;42384;45.186;19.958;2024-01-07T07:37:58;14.87;;;7.60;;
56481;SDS011;42384;45.186;19.958;2024-01-07T07:40:24;11.37;;;6.30;;
56481;SDS011;42384;45.186;19.958;2024-01-07T07:42:51;14.90;;;8.50;;
56481;SDS011;42384;45.186;19.958;2024-01-07T07:45:17;13.13;;;7.17;;
56481;SDS011;42384;45.186;19.958;2024-01-07T07:47:44;11.85;;;6.75;;
56481;SDS011;42384;45.186;19.958;2024-01-07T07:50:10;11.48;;;6.80;;
56481;SDS011;42384;45.186;19.958;2024-01-07T07:52:37;10.88;;;7.53;;
56481;SDS011;42384;45.186;19.958;2024-01-07T07:55:03;14.35;;;8.27;;
56481;SDS011;42384;45.186;19.958;2024-01-07T07:57:32;14.55;;;8.35;;
56481;SDS011;42384;45.186;19.958;2024-01-07T07:59:58;12.27;;;8.15;;
56481;SDS011;42384;45.186;19.958;2024-01-07T08:02:24;12.17;;;8.03;;
56481;SDS011;42384;45.186;19.958;2024-01-07T08:04:51;11.60;;;6.93;;
56481;SDS011;42384;45.186;19.958;2024-01-07T08:07:17;12.88;;;7.20;;
56481;SDS011;42384;45.186;19.958;2024-01-07T08:09:43;9.30;;;5.47;;
56481;SDS011;42384;45.186;19.958;2024-01-07T08:12:10;13.05;;;4.78;;
56481;SDS011;42384;45.186;19.958;2024-01-07T08:17:06;11.18;;;6.90;;
56481;SDS011;42384;45.186;19.958;2024-01-07T08:19:33;10.75;;;6.30;;
56481;SDS011;42384;45.186;19.958;2024-01-07T08:21:59;11.75;;;5.72;;
56481;SDS011;42384;45.186;19.958;2024-01-07T08:24:25;10.27;;;5.25;;
56481;SDS011;42384;45.186;19.958;2024-01-07T08:26:52;9.30;;;5.65;;
56481;SDS011;42384;45.186;19.958;2024-01-07T08:29:19;11.52;;;7.00;;
56481;SDS011;42384;45.186;19.958;2024-01-07T08:31:45;13.18;;;7.05;;
56481;SDS011;42384;45.186;19.958;2024-01-07T08:34:12;16.23;;;9.47;;
56481;SDS011;42384;45.186;19.958;2024-01-07T08:36:40;11.27;;;6.65;;
56481;SDS011;42384;45.186;19.958;2024-01-07T08:39:06;11.85;;;6.55;;
56481;SDS011;42384;45.186;19.958;2024-01-07T08:41:33;11.27;;;6.15;;
56481;SDS011;42384;45.186;19.958;2024-01-07T08:43:59;11.77;;;5.78;;
56481;SDS011;42384;45.186;19.958;2024-01-07T08:46:26;11.38;;;7.50;;
56481;SDS011;42384;45.186;19.958;2024-01-07T08:48:52;11.27;;;7.17;;
56481;SDS011;42384;45.186;19.958;2024-01-07T08:51:18;12.73;;;7.00;;
56481;SDS011;42384;45.186;19.958;2024-01-07T08:53:44;13.20;;;7.70;;
56481;SDS011;42384;45.186;19.958;2024-01-07T08:56:12;10.17;;;6.93;;
56481;SDS011;42384;45.186;19.958;2024-01-07T08:58:40;12.32;;;7.38;;
56481;SDS011;42384;45.186;19.958;2024-01-07T09:01:06;11.73;;;7.72;;
56481;SDS011;42384;45.186;19.958;2024-01-07T09:03:32;10.83;;;6.70;;
56481;SDS011;42384;45.186;19.958;2024-01-07T09:05:58;10.87;;;6.87;;
56481;SDS011;42384;45.186;19.958;2024-01-07T09:08:25;9.30;;;6.32;;
56481;SDS011;42384;45.186;19.958;2024-01-07T09:10:51;11.13;;;6.18;;
56481;SDS011;42384;45.186;19.958;2024-01-07T09:13:17;10.63;;;5.65;;
56481;SDS011;42384;45.186;19.958;2024-01-07T09:15:43;9.47;;;4.47;;
56481;SDS011;42384;45.186;19.958;2024-01-07T09:18:09;9.73;;;4.85;;
56481;SDS011;42384;45.186;19.958;2024-01-07T09:20:35;7.80;;;4.57;;
56481;SDS011;42384;45.186;19.958;2024-01-07T09:23:01;8.30;;;4.93;;
56481;SDS011;42384;45.186;19.958;2024-01-07T09:25:27;8.40;;;4.60;;
56481;SDS011;42384;45.186;19.958;2024-01-07T09:27:54;8.98;;;5.18;;
56481;SDS011;42384;45.186;19.958;2024-01-07T09:30:20;10.07;;;7.00;;
56481;SDS011;42384;45.186;19.958;2024-01-07T09:32:46;11.73;;;7.35;;
56481;SDS011;42384;45.186;19.958;2024-01-07T09:35:12;11.63;;;7.90;;
56481;SDS011;42384;45.186;19.958;2024-01-07T09:37:38;11.75;;;7.38;;
56481;SDS011;42384;45.186;19.958;2024-01-07T09:40:05;11.60;;;7.67;;
56481;SDS011;42384;45.186;19.958;2024-01-07T09:42:31;11.32;;;8.23;;
56481;SDS011;42384;45.186;19.958;2024-01-07T09:44:57;12.13;;;8.33;;
56481;SDS011;42384;45.186;19.958;2024-01-07T09:47:25;12.40;;;7.40;;
56481;SDS011;42384;45.186;19.958;2024-01-07T09:49:51;15.40;;;8.30;;
56481;SDS011;42384;45.186;19.958;2024-01-07T09:52:18;13.85;;;8.98;;
56481;SDS011;42384;45.186;19.958;2024-01-07T09:54:46;12.98;;;9.00;;
56481;SDS011;42384;45.186;19.958;2024-01-07T09:57:15;17.27;;;8.20;;
56481;SDS011;42384;45.186;19.958;2024-01-07T09:59:41;15.27;;;9.53;;
56481;SDS011;42384;45.186;19.958;2024-01-07T10:02:08;15.25;;;9.52;;
56481;SDS011;42384;45.186;19.958;2024-01-07T10:04:35;14.23;;;9.82;;
56481;SDS011;42384;45.186;19.958;2024-01-07T10:07:02;16.02;;;10.77;;
56481;SDS011;42384;45.186;19.958;2024-01-07T10:09:29;16.38;;;10.77;;
56481;SDS011;42384;45.186;19.958;2024-01-07T10:11:55;19.33;;;11.57;;
56481;SDS011;42384;45.186;19.958;2024-01-07T10:14:21;22.85;;;14.85;;
56481;SDS011;42384;45.186;19.958;2024-01-07T10:16:49;23.17;;;14.30;;
56481;SDS011;42384;45.186;19.958;2024-01-07T10:19:24;22.23;;;13.68;;
56481;SDS011;42384;45.186;19.958;2024-01-07T10:21:59;20.90;;;14.50;;
56481;SDS011;42384;45.186;19.958;2024-01-07T10:24:35;22.95;;;13.20;;
56481;SDS011;42384;45.186;19.958;2024-01-07T10:27:05;20.17;;;12.73;;
56481;SDS011;42384;45.186;19.958;2024-01-07T10:29:32;21.15;;;13.48;;
56481;SDS011;42384;45.186;19.958;2024-01-07T10:31:58;24.33;;;15.80;;
56481;SDS011;42384;45.186;19.958;2024-01-07T10:34:28;35.80;;;23.58;;
56481;SDS011;42384;45.186;19.958;2024-01-07T10:36:54;19.60;;;13.35;;
56481;SDS011;42384;45.186;19.958;2024-01-07T10:39:22;20.95;;;12.48;;
56481;SDS011;42384;45.186;19.958;2024-01-07T10:41:49;18.38;;;13.25;;
56481;SDS011;42384;45.186;19.958;2024-01-07T10:44:18;17.63;;;12.68;;
56481;SDS011;42384;45.186;19.958;2024-01-07T10:46:45;18.80;;;12.37;;
56481;SDS011;42384;45.186;19.958;2024-01-07T10:49:18;20.30;;;13.25;;
56481;SDS011;42384;45.186;19.958;2024-01-07T10:52:07;18.67;;;13.15;;
56481;SDS011;42384;45.186;19.958;2024-01-07T10:54:37;20.65;;;12.27;;
56481;SDS011;42384;45.186;19.958;2024-01-07T10:59:35;20.75;;;14.07;;
56481;SDS011;42384;45.186;19.958;2024-01-07T11:02:02;26.10;;;14.75;;
56481;SDS011;42384;45.186;19.958;2024-01-07T11:04:31;32.35;;;22.15;;
56481;SDS011;42384;45.186;19.958;2024-01-07T11:07:16;28.88;;;17.45;;
56481;SDS011;42384;45.186;19.958;2024-01-07T11:12:13;30.35;;;17.95;;
56481;SDS011;42384;45.186;19.958;2024-01-07T11:14:39;24.67;;;16.13;;
56481;SDS011;42384;45.186;19.958;2024-01-07T11:17:10;24.27;;;14.80;;
56481;SDS011;42384;45.186;19.958;2024-01-07T11:19:38;19.08;;;12.82;;
56481;SDS011;42384;45.186;19.958;2024-01-07T11:22:21;18.40;;;12.32;;
56481;SDS011;42384;45.186;19.958;2024-01-07T11:24:49;20.67;;;12.20;;
56481;SDS011;42384;45.186;19.958;2024-01-07T11:27:16;20.48;;;12.88;;
56481;SDS011;42384;45.186;19.958;2024-01-07T11:29:42;21.05;;;13.15;;
56481;SDS011;42384;45.186;19.958;2024-01-07T11:32:09;19.60;;;12.15;;
56481;SDS011;42384;45.186;19.958;2024-01-07T11:34:42;18.85;;;11.52;;
56481;SDS011;42384;45.186;19.958;2024-01-07T11:37:12;18.98;;;11.27;;
56481;SDS011;42384;45.186;19.958;2024-01-07T11:39:44;17.35;;;11.05;;
56481;SDS011;42384;45.186;19.958;2024-01-07T11:42:11;18.35;;;12.15;;
56481;SDS011;42384;45.186;19.958;2024-01-07T11:44:37;19.10;;;13.13;;
56481;SDS011;42384;45.186;19.958;2024-01-07T11:47:04;20.60;;;13.17;;
56481;SDS011;42384;45.186;19.958;2024-01-07T11:49:31;18.92;;;11.70;;
56481;SDS011;42384;45.186;19.958;2024-01-07T11:51:58;19.58;;;12.30;;
56481;SDS011;42384;45.186;19.958;2024-01-07T11:54:24;17.90;;;12.43;;
56481;SDS011;42384;45.186;19.958;2024-01-07T11:56:50;22.67;;;13.77;;
56481;SDS011;42384;45.186;19.958;2024-01-07T11:59:17;20.48;;;14.00;;
56481;SDS011;42384;45.186;19.958;2024-01-07T12:01:43;24.50;;;14.52;;
56481;SDS011;42384;45.186;19.958;2024-01-07T12:04:09;27.90;;;17.40;;
56481;SDS011;42384;45.186;19.958;2024-01-07T12:06:37;27.08;;;17.35;;
56481;SDS011;42384;45.186;19.958;2024-01-07T12:09:03;30.77;;;19.70;;
56481;SDS011;42384;45.186;19.958;2024-01-07T12:11:30;30.92;;;20.35;;
56481;SDS011;42384;45.186;19.958;2024-01-07T12:13:56;32.33;;;21.13;;
56481;SDS011;42384;45.186;19.958;2024-01-07T12:16:23;34.03;;;21.75;;
56481;SDS011;42384;45.186;19.958;2024-01-07T12:18:49;29.40;;;19.40;;
56481;SDS011;42384;45.186;19.958;2024-01-07T12:21:18;32.40;;;20.07;;
56481;SDS011;42384;45.186;19.958;2024-01-07T12:23:48;26.40;;;17.90;;
56481;SDS011;42384;45.186;19.958;2024-01-07T12:26:15;24.73;;;18.05;;
56481;SDS011;42384;45.186;19.958;2024-01-07T12:28:44;24.55;;;16.42;;
56481;SDS011;42384;45.186;19.958;2024-01-07T12:31:10;30.23;;;19.33;;
56481;SDS011;42384;45.186;19.958;2024-01-07T12:33:37;27.80;;;17.92;;
56481;SDS011;42384;45.186;19.958;2024-01-07T12:36:05;30.23;;;17.80;;
56481;SDS011;42384;45.186;19.958;2024-01-07T12:38:32;27.77;;;18.00;;
56481;SDS011;42384;45.186;19.958;2024-01-07T12:40:58;24.93;;;18.17;;
56481;SDS011;42384;45.186;19.958;2024-01-07T12:43:24;28.70;;;18.08;;
56481;SDS011;42384;45.186;19.958;2024-01-07T12:45:50;28.10;;;18.50;;
56481;SDS011;42384;45.186;19.958;2024-01-07T12:48:16;29.30;;;18.30;;
56481;SDS011;42384;45.186;19.958;2024-01-07T12:50:42;26.83;;;19.83;;
56481;SDS011;42384;45.186;19.958;2024-01-07T12:53:09;25.10;;;17.60;;
56481;SDS011;42384;45.186;19.958;2024-01-07T12:55:35;29.52;;;20.05;;
56481;SDS011;42384;45.186;19.958;2024-01-07T12:58:01;25.00;;;18.60;;
56481;SDS011;42384;45.186;19.958;2024-01-07T13:00:27;22.37;;;16.77;;
56481;SDS011;42384;45.186;19.958;2024-01-07T13:02:54;23.33;;;16.00;;
56481;SDS011;42384;45.186;19.958;2024-01-07T13:05:20;24.77;;;16.13;;
56481;SDS011;42384;45.186;19.958;2024-01-07T13:07:46;28.57;;;17.10;;
56481;SDS011;42384;45.186;19.958;2024-01-07T13:10:12;23.35;;;17.20;;
56481;SDS011;42384;45.186;19.958;2024-01-07T13:12:39;25.95;;;17.60;;
56481;SDS011;42384;45.186;19.958;2024-01-07T13:15:05;27.90;;;17.70;;
56481;SDS011;42384;45.186;19.958;2024-01-07T13:17:32;23.58;;;16.38;;
56481;SDS011;42384;45.186;19.958;2024-01-07T13:20:01;23.77;;;17.77;;
56481;SDS011;42384;45.186;19.958;2024-01-07T13:22:31;25.85;;;18.75;;
56481;SDS011;42384;45.186;19.958;2024-01-07T13:24:58;25.13;;;18.27;;
56481;SDS011;42384;45.186;19.958;2024-01-07T13:27:24;25.55;;;18.13;;
56481;SDS011;42384;45.186;19.958;2024-01-07T13:29:50;27.30;;;20.53;;
56481;SDS011;42384;45.186;19.958;2024-01-07T13:32:17;29.85;;;20.13;;
56481;SDS011;42384;45.186;19.958;2024-01-07T13:34:43;25.80;;;20.23;;
56481;SDS011;42384;45.186;19.958;2024-01-07T13:37:10;33.63;;;21.13;;
56481;SDS011;42384;45.186;19.958;2024-01-07T13:39:36;30.23;;;22.47;;
56481;SDS011;42384;45.186;19.958;2024-01-07T13:42:03;30.75;;;21.70;;
56481;SDS011;42384;45.186;19.958;2024-01-07T13:44:30;33.50;;;23.10;;
56481;SDS011;42384;45.186;19.958;2024-01-07T13:46:56;35.47;;;24.50;;
56481;SDS011;42384;45.186;19.958;2024-01-07T13:49:22;30.65;;;23.23;;
56481;SDS011;42384;45.186;19.958;2024-01-07T13:51:48;36.90;;;23.67;;
56481;SDS011;42384;45.186;19.958;2024-01-07T13:54:14;32.53;;;21.67;;
56481;SDS011;42384;45.186;19.958;2024-01-07T13:56:41;29.27;;;21.67;;
56481;SDS011;42384;45.186;19.958;2024-01-07T13:59:09;27.35;;;21.30;;
56481;SDS011;42384;45.186;19.958;2024-01-07T14:01:35;31.60;;;21.47;;
56481;SDS011;42384;45.186;19.958;2024-01-07T14:04:02;28.17;;;20.60;;
56481;SDS011;42384;45.186;19.958;2024-01-07T14:06:28;27.98;;;20.23;;
56481;SDS011;42384;45.186;19.958;2024-01-07T14:08:54;28.67;;;21.40;;
56481;SDS011;42384;45.186;19.958;2024-01-07T14:11:21;29.77;;;19.98;;
56481;SDS011;42384;45.186;19.958;2024-01-07T14:13:47;25.83;;;19.63;;
56481;SDS011;42384;45.186;19.958;2024-01-07T14:16:13;25.85;;;19.50;;
56481;SDS011;42384;45.186;19.958;2024-01-07T14:18:39;25.70;;;20.05;;
56481;SDS011;42384;45.186;19.958;2024-01-07T14:21:06;23.42;;;18.55;;
56481;SDS011;42384;45.186;19.958;2024-01-07T14:23:35;25.17;;;17.70;;
56481;SDS011;42384;45.186;19.958;2024-01-07T14:26:01;23.30;;;16.85;;
56481;SDS011;42384;45.186;19.958;2024-01-07T14:28:28;23.33;;;17.80;;
56481;SDS011;42384;45.186;19.958;2024-01-07T14:30:54;23.60;;;18.45;;
56481;SDS011;42384;45.186;19.958;2024-01-07T14:33:21;24.95;;;18.25;;
56481;SDS011;42384;45.186;19.958;2024-01-07T14:35:47;24.10;;;18.40;;